Time;durP1;ratioP1;P1;durP2;ratioP2;P2;SDS_P1;SDS_P2;PMS_P1;PMS_P2;Temp;Humidity;BMP_temperature;BMP_pressure;BME280_temperature;BME280_humidity;BME280_pressure;Samples;Min_cycle;Max_cycle;Signal;HPM_P1;HPM_P2
2023/01/19 00:01:30;;;;;;;7.00;5.47;;;;;;;0.36;77.77;99478.97;5113580;28;20207;-77
2023/01/19 00:03:56;;;;;;;6.00;5.50;;;;;;;0.39;77.96;99469.56;5113271;28;20218;-77
2023/01/19 00:06:23;;;;;;;5.80;5.30;;;;;;;0.38;77.56;99452.44;5113675;28;20580;-76
2023/01/19 00:08:50;;;;;;;8.93;5.37;;;;;;;0.35;78.18;99460.13;5099453;28;20300;-77
2023/01/19 00:11:17;;;;;;;6.00;5.37;;;;;;;0.29;78.19;99449.81;5104832;28;20203;-77
2023/01/19 00:13:48;;;;;;;6.50;5.33;;;;;;;0.30;78.52;99456.69;5113372;28;20199;-77
2023/01/19 00:16:17;;;;;;;6.47;5.30;;;;;;;0.27;78.75;99441.25;5113292;28;20326;-77
2023/01/19 00:18:43;;;;;;;6.60;6.00;;;;;;;0.22;78.93;99436.94;5113068;28;20272;-77
2023/01/19 00:21:10;;;;;;;6.90;6.20;;;;;;;0.25;79.17;99427.56;5112587;28;20730;-77
2023/01/19 00:23:37;;;;;;;6.00;5.50;;;;;;;0.24;79.72;99419.84;5112973;28;20500;-77
2023/01/19 00:26:03;;;;;;;6.90;5.33;;;;;;;0.28;79.45;99401.03;5113086;28;20259;-77
2023/01/19 00:28:30;;;;;;;5.43;4.93;;;;;;;0.35;78.91;99398.53;5113046;28;20270;-77
2023/01/19 00:30:56;;;;;;;5.70;5.20;;;;;;;0.31;78.67;99398.50;5113132;28;20724;-77
2023/01/19 00:33:24;;;;;;;8.43;5.10;;;;;;;0.38;79.01;99395.13;5113028;28;20258;-77
2023/01/19 00:35:51;;;;;;;6.57;5.87;;;;;;;0.21;79.40;99410.41;5112715;28;20665;-77
2023/01/19 00:38:18;;;;;;;6.40;5.73;;;;;;;0.33;78.86;99397.66;5107830;28;20225;-77
2023/01/19 00:40:45;;;;;;;6.27;5.77;;;;;;;0.31;78.84;99398.50;5096105;28;20197;-78
2023/01/19 00:43:10;;;;;;;9.17;5.30;;;;;;;0.32;79.04;99402.81;5104423;28;20203;-77
2023/01/19 00:45:36;;;;;;;5.77;5.27;;;;;;;0.41;78.83;99391.72;5113444;28;20253;-77
2023/01/19 00:48:03;;;;;;;6.30;5.70;;;;;;;0.40;79.24;99401.13;5112831;28;20225;-77
2023/01/19 00:50:32;;;;;;;5.17;4.77;;;;;;;0.38;78.50;99408.81;5112650;28;20207;-77
2023/01/19 00:53:00;;;;;;;6.23;5.63;;;;;;;0.30;79.00;99405.34;5112916;28;20199;-77
2023/01/19 00:55:28;;;;;;;6.10;4.93;;;;;;;0.23;79.51;99407.88;5112773;28;20222;-77
2023/01/19 00:57:54;;;;;;;6.80;5.63;;;;;;;0.25;79.67;99385.63;5095029;28;20315;-77
2023/01/19 01:00:22;;;;;;;7.13;5.47;;;;;;;0.26;79.71;99382.22;5108032;28;20718;-77
2023/01/19 01:02:50;;;;;;;5.67;5.17;;;;;;;0.30;79.81;99376.28;5112749;28;20262;-77
2023/01/19 01:05:17;;;;;;;6.27;5.10;;;;;;;0.27;79.43;99378.81;5112652;28;20268;-77
2023/01/19 01:07:47;;;;;;;6.17;5.03;;;;;;;0.21;79.67;99389.88;5112500;28;20283;-77
2023/01/19 01:10:16;;;;;;;5.00;4.50;;;;;;;0.21;79.15;99377.06;5111901;28;20217;-77
2023/01/19 01:12:43;;;;;;;6.73;5.27;;;;;;;0.16;79.03;99387.31;5099879;28;20201;-77
2023/01/19 01:15:12;;;;;;;6.17;4.80;;;;;;;0.26;79.52;99375.38;5103939;28;20200;-77
2023/01/19 01:17:45;;;;;;;5.43;4.90;;;;;;;0.22;79.29;99391.63;5116106;28;20238;-77
2023/01/19 01:20:15;;;;;;;4.53;4.13;;;;;;;0.38;78.90;99397.69;5116135;28;20210;-77
2023/01/19 01:22:44;;;;;;;5.10;4.60;;;;;;;0.34;78.79;99411.38;5116400;28;20207;-77
2023/01/19 01:25:12;;;;;;;5.63;5.23;;;;;;;0.24;79.65;99415.59;5116762;28;20272;-77
2023/01/19 01:27:39;;;;;;;5.27;4.77;;;;;;;0.24;78.94;99412.13;5116413;28;20216;-77
2023/01/19 01:30:06;;;;;;;6.17;5.57;;;;;;;0.34;78.95;99411.38;5116102;27;20207;-77
2023/01/19 01:32:33;;;;;;;5.07;4.53;;;;;;;0.37;78.40;99417.34;5116096;28;20711;-77
2023/01/19 01:34:59;;;;;;;5.63;5.10;;;;;;;0.41;79.42;99404.56;5116688;28;20205;-77
2023/01/19 01:37:26;;;;;;;4.77;4.13;;;;;;;0.34;79.52;99407.09;5116130;28;20224;-77
2023/01/19 01:39:52;;;;;;;5.20;4.70;;;;;;;0.30;78.46;99419.91;5116120;28;20248;-77
2023/01/19 01:42:26;;;;;;;5.20;4.70;;;;;;;0.39;78.52;99422.50;5107473;28;20205;-77
2023/01/19 01:44:56;;;;;;;6.20;4.73;;;;;;;0.42;78.70;99419.09;5107717;28;20200;-77
2023/01/19 01:47:30;;;;;;;4.77;4.27;;;;;;;0.37;78.74;99406.22;5115773;28;20207;-77
2023/01/19 01:50:04;;;;;;;5.73;5.03;;;;;;;0.46;78.93;99403.72;5115810;28;20187;-77
2023/01/19 01:52:32;;;;;;;6.00;4.93;;;;;;;0.49;78.58;99408.84;5113738;28;20251;-77
2023/01/19 01:55:00;;;;;;;5.50;5.00;;;;;;;0.42;79.40;99414.84;5108147;28;20261;-77
2023/01/19 01:57:28;;;;;;;4.67;4.27;;;;;;;0.46;79.28;99406.28;5115690;27;20223;-77
2023/01/19 01:59:56;;;;;;;6.80;5.10;;;;;;;0.43;78.98;99408.84;5115741;28;20204;-77
2023/01/19 02:05:15;;;;;;;5.37;4.57;;;;;;;0.53;79.38;99402.03;5115686;28;20204;-77
2023/01/19 02:13:19;;;;;;;4.87;4.47;;;;;;;0.51;79.89;99388.34;5115514;28;20207;-77
2023/01/19 02:15:47;;;;;;;5.43;4.93;;;;;;;0.49;79.55;99392.59;5115428;28;20679;-77
2023/01/19 02:18:13;;;;;;;8.40;4.93;;;;;;;0.56;79.54;99384.09;5115116;28;20223;-77
2023/01/19 02:20:43;;;;;;;5.10;4.60;;;;;;;0.55;79.82;99383.22;5115084;28;20209;-77
2023/01/19 02:23:17;;;;;;;5.17;4.33;;;;;;;0.54;78.97;99388.38;5109029;27;20204;-77
2023/01/19 02:25:45;;;;;;;5.30;4.70;;;;;;;0.58;79.48;99385.81;5114029;28;20201;-77
2023/01/19 02:28:12;;;;;;;5.47;4.90;;;;;;;0.53;79.87;99396.91;5114662;28;20625;-77
2023/01/19 02:30:41;;;;;;;6.30;4.57;;;;;;;0.55;79.55;99397.75;5114906;28;20207;-77
2023/01/19 02:33:07;;;;;;;5.63;4.97;;;;;;;0.57;78.69;99389.22;5115356;28;20200;-77
2023/01/19 02:35:37;;;;;;;6.17;4.33;;;;;;;0.58;79.14;99387.53;5114865;28;20199;-77
2023/01/19 02:38:04;;;;;;;5.63;5.13;;;;;;;0.59;78.75;99402.06;5115167;28;20316;-77
2023/01/19 02:40:31;;;;;;;5.43;4.97;;;;;;;0.65;78.39;99409.78;5115040;28;20722;-77
2023/01/19 02:43:00;;;;;;;5.13;4.67;;;;;;;0.67;78.03;99420.06;5115827;28;20579;-77
2023/01/19 02:45:27;;;;;;;5.70;5.00;;;;;;;0.58;79.05;99426.88;5116239;28;20578;-77
2023/01/19 02:47:53;;;;;;;6.43;5.00;;;;;;;0.58;78.88;99426.03;5115450;28;20356;-77
2023/01/19 02:50:42;;;;;;;5.73;5.13;;;;;;;0.53;78.99;99423.44;5102137;28;20571;-77
2023/01/19 02:53:53;;;;;;;6.20;5.33;;;;;;;0.63;78.75;99426.06;5074314;28;20308;-77
2023/01/19 02:56:42;;;;;;;5.73;5.03;;;;;;;0.60;79.72;99416.63;5041251;28;20263;-77
2023/01/19 02:59:21;;;;;;;5.63;4.93;;;;;;;0.66;79.09;99410.66;5074167;28;20611;-78
2023/01/19 03:02:03;;;;;;;5.13;4.70;;;;;;;0.57;79.21;99414.88;5074045;28;20206;-77
2023/01/19 03:04:40;;;;;;;6.03;4.40;;;;;;;0.56;79.07;99413.19;5074346;28;20255;-77
2023/01/19 03:07:10;;;;;;;5.60;5.07;;;;;;;0.60;78.97;99406.38;5105999;28;20230;-77
2023/01/19 03:09:44;;;;;;;7.30;5.70;;;;;;;0.66;79.46;99413.25;5106645;28;20227;-78
2023/01/19 03:12:23;;;;;;;5.37;4.97;;;;;;;0.63;80.14;99400.38;5105959;28;20200;-77
2023/01/19 03:14:55;;;;;;;5.60;5.10;;;;;;;0.55;79.77;99402.91;5115431;28;20207;-77
2023/01/19 03:17:22;;;;;;;5.70;5.07;;;;;;;0.61;79.74;99396.94;5115665;28;20223;-78
2023/01/19 03:19:50;;;;;;;5.17;4.50;;;;;;;0.70;79.01;99402.13;5115017;28;20674;-77
2023/01/19 03:22:22;;;;;;;5.27;4.83;;;;;;;0.57;78.64;99407.19;5115546;28;20257;-77
2023/01/19 03:24:50;;;;;;;6.07;5.00;;;;;;;0.51;80.16;99414.84;5114700;27;20256;-77
2023/01/19 03:27:22;;;;;;;4.97;4.57;;;;;;;0.61;80.03;99399.50;5114319;28;20208;-77
2023/01/19 03:29:53;;;;;;;6.33;4.80;;;;;;;0.63;79.72;99388.38;5114585;28;20220;-77
2023/01/19 03:32:28;;;;;;;6.03;4.77;;;;;;;0.72;79.64;99385.00;5114746;28;20316;-77
2023/01/19 03:34:56;;;;;;;6.63;5.43;;;;;;;0.66;80.07;99395.25;5114902;28;20203;-77
2023/01/19 03:37:25;;;;;;;4.80;4.40;;;;;;;0.73;79.57;99392.72;5114723;28;20223;-78
2023/01/19 03:39:52;;;;;;;4.90;4.50;;;;;;;0.72;79.92;99403.84;5110424;28;20201;-77
2023/01/19 03:42:20;;;;;;;5.40;4.80;;;;;;;0.72;79.91;99403.84;5105002;28;20204;-77
2023/01/19 03:44:49;;;;;;;5.20;4.70;;;;;;;0.74;80.33;99393.56;5106314;28;20253;-77
2023/01/19 03:47:17;;;;;;;5.23;4.73;;;;;;;0.78;79.70;99395.31;5114660;28;20200;-77
2023/01/19 03:49:46;;;;;;;5.13;4.73;;;;;;;0.77;79.87;99388.44;5114731;28;20205;-77
2023/01/19 03:52:12;;;;;;;4.60;4.20;;;;;;;0.70;80.04;99402.97;5108229;28;20264;-77
2023/01/19 03:54:39;;;;;;;5.87;5.07;;;;;;;0.72;80.85;99383.28;5105259;28;20641;-77
2023/01/19 03:57:06;;;;;;;5.33;4.83;;;;;;;0.79;80.28;99376.47;5113712;28;20203;-77
2023/01/19 03:59:33;;;;;;;6.60;4.60;;;;;;;0.81;80.09;99377.31;5113967;28;20272;-77
2023/01/19 04:01:59;;;;;;;5.50;5.10;;;;;;;0.92;80.41;99370.50;5113781;28;20763;-77
2023/01/19 04:04:27;;;;;;;5.10;4.70;;;;;;;0.89;80.50;99367.94;5113865;28;20203;-77
2023/01/19 04:06:54;;;;;;;4.93;4.10;;;;;;;0.92;79.79;99372.22;5113919;28;20667;-77
2023/01/19 04:09:20;;;;;;;4.67;4.27;;;;;;;0.97;80.07;99366.25;5113953;28;20387;-77
2023/01/19 04:11:46;;;;;;;5.00;4.60;;;;;;;1.05;80.49;99362.81;5114040;28;20204;-77
2023/01/19 04:14:13;;;;;;;5.00;4.53;;;;;;;1.05;79.74;99371.41;5114321;28;20212;-77
2023/01/19 04:16:39;;;;;;;5.23;4.80;;;;;;;0.99;79.42;99377.41;5109555;28;20208;-77
2023/01/19 04:19:05;;;;;;;5.03;4.53;;;;;;;1.01;79.78;99374.81;5105210;28;20755;-77
2023/01/19 04:21:34;;;;;;;5.43;4.93;;;;;;;1.08;79.08;99379.13;5113160;28;20203;-78
2023/01/19 04:24:00;;;;;;;6.37;5.00;;;;;;;1.12;79.89;99385.97;5112728;28;20208;-77
2023/01/19 04:26:27;;;;;;;4.73;4.33;;;;;;;1.10;79.44;99381.69;5112883;28;20265;-77
2023/01/19 04:28:53;;;;;;;5.20;4.47;;;;;;;1.17;79.78;99376.56;5112550;28;20366;-77
2023/01/19 04:31:19;;;;;;;5.57;4.97;;;;;;;1.14;79.36;99396.25;5112260;27;20254;-77
2023/01/19 04:33:46;;;;;;;6.50;4.37;;;;;;;1.07;79.06;99407.38;5100213;28;20207;-77
2023/01/19 04:36:12;;;;;;;5.80;5.03;;;;;;;1.05;78.70;99406.50;5106585;28;20670;-77
2023/01/19 04:38:40;;;;;;;4.93;4.53;;;;;;;1.05;79.62;99401.38;5112432;28;20231;-76
2023/01/19 04:41:06;;;;;;;4.83;4.40;;;;;;;1.16;78.93;99404.84;5112398;28;20256;-77
2023/01/19 04:43:33;;;;;;;4.90;4.50;;;;;;;1.21;79.40;99409.97;5112504;28;20237;-76
2023/01/19 04:45:59;;;;;;;4.63;4.03;;;;;;;1.25;79.84;99399.72;5112977;28;20208;-78
2023/01/19 04:48:25;;;;;;;5.23;4.73;;;;;;;1.28;79.37;99386.88;5113256;28;20225;-77
2023/01/19 04:50:52;;;;;;;5.30;4.00;;;;;;;1.15;78.90;99405.69;5112640;28;20204;-77
2023/01/19 04:53:19;;;;;;;5.70;4.93;;;;;;;1.21;78.19;99403.16;5112810;28;20209;-78
2023/01/19 04:55:47;;;;;;;4.67;4.27;;;;;;;1.22;79.40;99409.13;5096075;28;20684;-77
2023/01/19 04:58:14;;;;;;;4.47;4.07;;;;;;;1.16;78.13;99415.13;5107205;28;20228;-77
2023/01/19 05:00:40;;;;;;;4.97;4.47;;;;;;;1.22;78.67;99409.13;5112940;28;20257;-78
2023/01/19 05:03:06;;;;;;;4.97;4.57;;;;;;;1.17;78.78;99411.72;5113292;28;20200;-77
2023/01/19 05:05:33;;;;;;;5.20;4.80;;;;;;;1.12;78.55;99416.81;5113578;28;20209;-77
2023/01/19 05:07:59;;;;;;;4.60;4.20;;;;;;;1.08;78.38;99411.66;5113561;28;20227;-77
2023/01/19 05:10:26;;;;;;;5.00;4.40;;;;;;;1.12;79.09;99408.25;5113719;28;20621;-77
2023/01/19 05:12:53;;;;;;;4.13;3.83;;;;;;;1.16;78.89;99404.84;5113708;28;20199;-78
2023/01/19 05:15:20;;;;;;;5.53;4.40;;;;;;;1.18;78.60;99411.69;5114267;28;20229;-78
2023/01/19 05:17:46;;;;;;;4.90;4.40;;;;;;;1.18;79.27;99403.97;5106585;28;20281;-77
2023/01/19 05:20:14;;;;;;;4.63;4.27;;;;;;;1.14;79.87;99409.97;5106841;28;20206;-77
2023/01/19 05:22:40;;;;;;;6.43;4.60;;;;;;;1.11;79.24;99417.69;5112011;28;20209;-77
2023/01/19 05:25:08;;;;;;;4.80;4.20;;;;;;;1.22;78.83;99419.41;5112180;28;20203;-77
2023/01/19 05:27:35;;;;;;;4.70;4.30;;;;;;;1.27;78.46;99422.84;5111916;28;20740;-77
2023/01/19 05:30:04;;;;;;;4.43;4.13;;;;;;;1.26;78.53;99423.72;5112206;28;20252;-77
2023/01/19 05:32:30;;;;;;;4.33;4.00;;;;;;;1.29;78.82;99431.41;5112324;28;20200;-78
2023/01/19 05:34:57;;;;;;;5.77;4.27;;;;;;;1.32;78.39;99431.44;5112468;28;20677;-77
2023/01/19 05:37:23;;;;;;;4.70;4.30;;;;;;;1.28;77.89;99434.84;5112981;28;20332;-78
2023/01/19 05:39:49;;;;;;;4.40;3.93;;;;;;;1.34;78.08;99428.00;5113005;28;20273;-77
2023/01/19 05:42:16;;;;;;;4.50;4.10;;;;;;;1.28;78.07;99434.84;5113253;28;20204;-78
2023/01/19 05:44:42;;;;;;;4.63;4.23;;;;;;;1.37;78.29;99424.59;5105186;28;20230;-78
2023/01/19 05:47:10;;;;;;;4.87;4.47;;;;;;;1.39;77.83;99444.31;5107611;28;20605;-79
2023/01/19 05:49:37;;;;;;;5.07;4.57;;;;;;;1.38;78.56;99445.16;5114813;28;20228;-78
2023/01/19 05:52:03;;;;;;;5.53;5.00;;;;;;;1.29;77.25;99450.28;5115877;28;20672;-78
2023/01/19 05:54:29;;;;;;;5.23;4.77;;;;;;;1.33;78.01;99459.72;5101449;28;20216;-79
2023/01/19 05:56:56;;;;;;;4.67;4.27;;;;;;;1.38;78.09;99458.00;5096389;28;20197;-79
2023/01/19 05:59:23;;;;;;;5.53;4.90;;;;;;;1.33;77.97;99464.00;5096163;28;20234;-79
2023/01/19 06:01:50;;;;;;;7.53;4.80;;;;;;;1.32;77.84;99454.56;5095981;28;20278;-78
2023/01/19 06:04:18;;;;;;;5.20;4.47;;;;;;;1.23;78.32;99469.97;5100363;28;20241;-79
2023/01/19 06:06:44;;;;;;;4.90;4.33;;;;;;;1.33;78.41;99451.16;5099879;28;20644;-78
2023/01/19 06:09:10;;;;;;;4.70;4.20;;;;;;;1.37;77.77;99460.59;5100389;28;20635;-80
2023/01/19 06:11:37;;;;;;;5.93;4.57;;;;;;;1.35;78.30;99463.16;5099360;28;20212;-78
2023/01/19 06:14:03;;;;;;;4.87;4.47;;;;;;;1.36;77.60;99470.00;5099610;28;20240;-79
2023/01/19 06:16:29;;;;;;;5.40;4.50;;;;;;;1.38;77.96;99482.88;5099860;28;20257;-80
2023/01/19 06:18:56;;;;;;;5.83;4.57;;;;;;;1.39;78.18;99474.31;5094413;28;20225;-80
2023/01/19 06:21:24;;;;;;;4.73;4.30;;;;;;;1.46;77.92;99468.31;5091172;28;20330;-80
2023/01/19 06:23:50;;;;;;;5.00;4.60;;;;;;;1.41;78.03;99458.88;5087656;28;20678;-80
2023/01/19 06:26:16;;;;;;;6.50;4.23;;;;;;;1.44;78.36;99467.44;5093473;28;20267;-78
2023/01/19 06:28:43;;;;;;;6.73;4.40;;;;;;;1.50;77.61;99479.47;5092036;28;20271;-80
2023/01/19 06:31:09;;;;;;;5.13;4.63;;;;;;;1.53;77.28;99480.34;5088695;28;20364;-80
2023/01/19 06:33:35;;;;;;;4.80;4.40;;;;;;;1.44;76.61;99508.59;5090292;28;20192;-80
2023/01/19 06:36:02;;;;;;;4.97;4.57;;;;;;;1.51;76.43;99512.06;5089097;28;20197;-79
2023/01/19 06:38:31;;;;;;;5.07;4.57;;;;;;;1.51;76.96;99517.19;5090487;28;20224;-80
2023/01/19 06:40:58;;;;;;;6.47;4.97;;;;;;;1.53;76.51;99529.19;5091760;28;20220;-80
2023/01/19 06:43:25;;;;;;;6.37;4.17;;;;;;;1.58;76.71;99534.34;5091845;28;20201;-81
2023/01/19 06:45:52;;;;;;;5.30;4.77;;;;;;;1.58;77.09;99539.50;5090498;28;20207;-80
2023/01/19 06:48:19;;;;;;;5.73;4.93;;;;;;;1.58;76.53;99547.22;5092480;28;20220;-79
2023/01/19 06:50:45;;;;;;;6.10;4.80;;;;;;;1.67;76.49;99541.25;5091347;28;20654;-80
2023/01/19 06:53:12;;;;;;;6.00;5.40;;;;;;;1.53;76.59;99554.06;5090851;28;20198;-80
2023/01/19 06:55:40;;;;;;;4.77;4.30;;;;;;;1.59;76.37;99552.38;5097886;28;20288;-80
2023/01/19 06:58:06;;;;;;;5.20;4.67;;;;;;;1.62;76.54;99550.66;5092698;28;20220;-80
2023/01/19 07:00:32;;;;;;;4.70;4.30;;;;;;;1.60;77.66;99540.34;5097027;28;20204;-79
2023/01/19 07:02:59;;;;;;;4.57;4.17;;;;;;;1.61;77.37;99531.78;5102897;28;20205;-79
2023/01/19 07:05:25;;;;;;;5.20;4.70;;;;;;;1.60;76.31;99535.22;5103043;28;20727;-80
2023/01/19 07:07:52;;;;;;;5.13;4.67;;;;;;;1.56;76.34;99542.06;5102926;28;20285;-80
2023/01/19 07:10:18;;;;;;;5.03;4.53;;;;;;;1.59;76.62;99548.94;5102617;28;20200;-82
2023/01/19 07:12:46;;;;;;;4.70;4.10;;;;;;;1.61;76.95;99542.09;5102098;28;20261;-81
2023/01/19 07:15:13;;;;;;;5.90;4.47;;;;;;;1.70;76.89;99543.81;5102985;28;20258;-81
2023/01/19 07:17:40;;;;;;;5.33;4.83;;;;;;;1.70;75.92;99554.09;5102961;28;20232;-81
2023/01/19 07:20:10;;;;;;;5.27;4.87;;;;;;;1.57;76.44;99559.22;5102785;28;20252;-81
2023/01/19 07:22:36;;;;;;;5.10;4.20;;;;;;;1.64;77.01;99554.09;5102766;28;20689;-81
2023/01/19 07:25:03;;;;;;;5.77;4.10;;;;;;;1.67;76.87;99559.25;5109362;28;20205;-80
2023/01/19 07:27:30;;;;;;;5.33;4.60;;;;;;;1.62;76.56;99561.78;5102398;28;20305;-80
2023/01/19 07:29:59;;;;;;;5.40;4.13;;;;;;;1.65;76.77;99563.53;5102042;28;20196;-80
2023/01/19 07:32:26;;;;;;;5.73;4.80;;;;;;;1.73;77.05;99565.25;5104712;28;20210;-81
2023/01/19 07:34:52;;;;;;;4.77;4.47;;;;;;;1.65;76.67;99564.38;5104331;28;20208;-79
2023/01/19 07:37:19;;;;;;;5.27;4.77;;;;;;;1.74;76.18;99574.69;5103097;28;20222;-81
2023/01/19 07:39:45;;;;;;;5.53;5.03;;;;;;;1.79;76.90;99572.16;5104135;28;20228;-79
2023/01/19 07:42:12;;;;;;;5.27;4.80;;;;;;;1.76;77.15;99554.13;5106942;28;20201;-81
2023/01/19 07:44:38;;;;;;;5.17;4.63;;;;;;;1.68;76.40;99568.66;5107791;28;20298;-81
2023/01/19 07:47:10;;;;;;;6.77;5.30;;;;;;;1.72;76.13;99570.41;5107990;28;20204;-81
2023/01/19 07:49:36;;;;;;;6.27;5.43;;;;;;;1.73;76.44;99567.84;5106285;28;20274;-80
2023/01/19 07:52:02;;;;;;;7.07;5.30;;;;;;;1.71;75.59;99576.41;5101177;28;20200;-80
2023/01/19 07:54:29;;;;;;;5.53;5.03;;;;;;;1.76;75.77;99588.44;5109753;28;20264;-81
2023/01/19 07:56:55;;;;;;;6.03;5.53;;;;;;;1.72;75.98;99607.25;5117043;28;20229;-80
2023/01/19 07:59:21;;;;;;;5.50;4.90;;;;;;;1.47;76.08;99613.19;5127991;28;20654;-81
2023/01/19 08:01:48;;;;;;;5.30;4.80;;;;;;;1.57;76.46;99609.81;5127453;28;20203;-80
2023/01/19 08:04:17;;;;;;;5.77;5.27;;;;;;;1.62;76.85;99596.94;5128085;28;20225;-81
2023/01/19 08:06:46;;;;;;;6.07;5.57;;;;;;;1.74;76.93;99594.41;5100814;28;20223;-80
2023/01/19 08:09:12;;;;;;;6.03;5.40;;;;;;;1.73;76.21;99591.00;5096032;28;20220;-79
2023/01/19 08:11:39;;;;;;;5.63;5.13;;;;;;;1.81;75.48;99609.03;5096029;28;20192;-80
2023/01/19 08:14:05;;;;;;;6.63;5.23;;;;;;;1.71;75.21;99621.00;5096341;28;20198;-81
2023/01/19 08:16:32;;;;;;;5.57;5.03;;;;;;;1.74;75.56;99628.72;5095471;28;20226;-82
2023/01/19 08:18:58;;;;;;;5.93;5.33;;;;;;;1.78;75.70;99619.28;5123743;28;20553;-80
2023/01/19 08:21:27;;;;;;;8.07;5.47;;;;;;;1.69;75.45;99612.41;5125028;27;20256;-81
2023/01/19 08:23:53;;;;;;;7.20;5.40;;;;;;;1.72;75.67;99633.00;5125934;28;20230;-80
2023/01/19 08:26:23;;;;;;;4.90;4.47;;;;;;;1.59;74.87;99628.66;5107871;28;20231;-80
2023/01/19 08:28:49;;;;;;;5.57;4.73;;;;;;;1.47;75.19;99642.34;5101027;28;20216;-80
2023/01/19 08:31:16;;;;;;;5.53;4.87;;;;;;;1.58;76.23;99612.34;5098269;28;20205;-80
2023/01/19 08:33:43;;;;;;;7.07;4.93;;;;;;;1.63;76.74;99606.41;5094168;28;20558;-80
2023/01/19 08:36:09;;;;;;;5.47;5.03;;;;;;;1.48;76.78;99608.03;5094973;28;20201;-79
2023/01/19 08:38:40;;;;;;;5.53;5.13;;;;;;;1.56;76.20;99585.78;5095889;28;20220;-81
2023/01/19 08:41:06;;;;;;;5.40;4.83;;;;;;;1.57;77.37;99592.66;5098116;28;20212;-81
2023/01/19 08:43:32;;;;;;;5.63;4.67;;;;;;;1.58;76.76;99578.06;5098631;28;20232;-81
2023/01/19 08:45:59;;;;;;;5.97;5.37;;;;;;;1.67;76.84;99566.97;5098576;28;20204;-80
2023/01/19 08:48:25;;;;;;;6.87;5.93;;;;;;;1.71;76.61;99573.84;5098928;28;20260;-80
2023/01/19 08:50:52;;;;;;;4.93;4.53;;;;;;;1.66;76.32;99585.81;5109883;28;20269;-82
2023/01/19 08:53:22;;;;;;;5.17;4.77;;;;;;;1.57;76.24;99592.66;5118931;28;20246;-82
2023/01/19 08:55:50;;;;;;;5.90;5.40;;;;;;;1.69;77.10;99581.53;5118775;28;20247;-82
2023/01/19 08:58:17;;;;;;;5.77;4.80;;;;;;;1.56;76.64;99588.34;5118809;28;20223;-82
2023/01/19 09:00:43;;;;;;;5.23;4.73;;;;;;;1.64;77.15;99588.38;5118618;28;20219;-80
2023/01/19 09:03:12;;;;;;;6.07;5.53;;;;;;;1.71;76.93;99597.84;5118023;28;20212;-82
2023/01/19 09:05:39;;;;;;;5.97;5.47;;;;;;;1.68;76.79;99596.97;5117676;28;20211;-81
2023/01/19 09:08:08;;;;;;;5.83;5.33;;;;;;;1.75;77.00;99591.00;5118782;28;20220;-81
2023/01/19 09:10:36;;;;;;;6.63;6.13;;;;;;;1.73;76.57;99603.00;5114529;28;20231;-82
2023/01/19 09:13:05;;;;;;;6.03;5.43;;;;;;;1.80;76.97;99607.28;5109631;28;20261;-81
2023/01/19 09:15:34;;;;;;;5.30;4.87;;;;;;;1.70;76.27;99614.13;5118365;28;20282;-81
2023/01/19 09:18:01;;;;;;;5.83;5.33;;;;;;;1.83;76.38;99607.31;5117814;28;20248;-81
2023/01/19 09:20:29;;;;;;;6.17;5.23;;;;;;;1.70;76.96;99615.84;5117057;28;20224;-80
2023/01/19 09:22:57;;;;;;;7.77;5.90;;;;;;;1.76;77.63;99590.13;5118159;28;20285;-80
2023/01/19 09:25:23;;;;;;;7.90;5.57;;;;;;;1.84;77.43;99592.72;5118169;28;20564;-81
2023/01/19 09:27:50;;;;;;;5.63;5.10;;;;;;;1.85;76.99;99585.03;5117367;28;20226;-80
2023/01/19 09:30:18;;;;;;;6.13;5.47;;;;;;;1.92;76.92;99567.88;5107267;28;20204;-80
2023/01/19 09:32:45;;;;;;;5.93;5.40;;;;;;;1.76;77.44;99575.56;5109075;28;20246;-82
2023/01/19 09:35:11;;;;;;;6.13;5.53;;;;;;;1.72;77.56;99575.53;5117148;28;20204;-81
2023/01/19 09:37:38;;;;;;;6.30;5.70;;;;;;;1.73;77.53;99570.41;5119274;28;20207;-82
2023/01/19 09:40:05;;;;;;;7.33;5.73;;;;;;;1.55;78.59;99576.34;5121332;28;20717;-82
2023/01/19 09:42:42;;;;;;;6.23;5.63;;;;;;;1.58;79.29;99550.63;5121506;28;20240;-82
2023/01/19 09:45:16;;;;;;;6.53;6.00;;;;;;;1.57;79.47;99537.78;5109461;28;20224;-81
2023/01/19 09:47:45;;;;;;;6.70;5.47;;;;;;;1.69;79.47;99516.38;5119160;28;20753;-80
2023/01/19 09:50:20;;;;;;;6.30;5.80;;;;;;;1.63;79.86;99511.22;5111464;27;20208;-82
2023/01/19 09:52:56;;;;;;;6.17;5.57;;;;;;;1.65;80.54;99484.66;5120097;28;20203;-79
2023/01/19 09:55:26;;;;;;;6.00;5.10;;;;;;;1.73;80.78;99484.66;5113253;28;20211;-82
2023/01/19 09:57:52;;;;;;;5.43;4.97;;;;;;;1.66;80.79;99478.63;5112961;28;20271;-82
2023/01/19 10:00:21;;;;;;;5.67;5.07;;;;;;;1.71;80.67;99470.94;5120021;28;20246;-80
2023/01/19 10:02:53;;;;;;;5.30;4.80;;;;;;;1.76;81.78;99457.22;5121280;28;20200;-83
2023/01/19 10:05:26;;;;;;;5.67;5.10;;;;;;;1.87;81.35;99459.78;5121239;28;20203;-82
2023/01/19 10:08:07;;;;;;;5.63;5.13;;;;;;;1.78;80.82;99464.94;5120294;28;20700;-83
2023/01/19 10:10:35;;;;;;;5.27;4.87;;;;;;;1.72;81.47;99465.78;5117003;28;20203;-83
2023/01/19 10:13:15;;;;;;;5.50;4.97;;;;;;;1.75;81.43;99457.22;5119890;28;20265;-83
2023/01/19 10:15:51;;;;;;;6.30;4.87;;;;;;;1.82;82.50;99432.34;5106302;28;20253;-82
2023/01/19 10:18:24;;;;;;;5.57;5.07;;;;;;;1.83;82.10;99428.94;5101230;28;20219;-82
2023/01/19 10:20:54;;;;;;;5.10;4.70;;;;;;;1.90;81.98;99428.06;5111731;28;20212;-81
2023/01/19 10:23:31;;;;;;;5.53;4.77;;;;;;;1.95;82.03;99427.19;5120167;28;20196;-81
2023/01/19 10:26:01;;;;;;;5.37;4.87;;;;;;;2.07;82.10;99420.34;5119425;28;20206;-85
2023/01/19 10:28:28;;;;;;;4.73;4.33;;;;;;;2.06;82.36;99427.22;5116880;28;20288;-80
2023/01/19 10:30:55;;;;;;;5.73;5.23;;;;;;;2.11;81.56;99438.34;5118331;28;20729;-82
2023/01/19 10:33:23;;;;;;;4.60;4.20;;;;;;;2.04;82.53;99435.78;5115361;28;20210;-83
2023/01/19 10:35:49;;;;;;;3.77;3.47;;;;;;;2.04;82.56;99431.47;5118550;28;20617;-81
2023/01/19 10:38:20;;;;;;;4.17;3.77;;;;;;;2.12;82.40;99428.91;5118323;28;20218;-83
2023/01/19 10:40:52;;;;;;;4.30;4.00;;;;;;;2.05;82.17;99434.94;5118061;28;20272;-81
2023/01/19 10:43:40;;;;;;;4.57;3.93;;;;;;;2.11;82.22;99424.63;5118356;28;20196;-80
2023/01/19 10:46:07;;;;;;;4.40;4.00;;;;;;;1.96;83.44;99417.75;5117955;28;20230;-81
2023/01/19 10:48:41;;;;;;;3.70;3.40;;;;;;;2.15;83.11;99406.59;5109181;28;20227;-85
2023/01/19 10:51:09;;;;;;;4.27;3.93;;;;;;;2.14;84.06;99393.72;5099480;28;20212;-84
2023/01/19 10:53:36;;;;;;;4.47;4.07;;;;;;;2.21;83.56;99384.28;5098722;28;20200;-83
2023/01/19 10:56:16;;;;;;;3.93;3.63;;;;;;;2.12;84.91;99375.72;5116121;28;20206;-84
2023/01/19 10:58:42;;;;;;;4.10;3.63;;;;;;;1.99;85.28;99371.44;5100972;28;20216;-83
2023/01/19 11:01:14;;;;;;;3.80;3.47;;;;;;;2.04;85.25;99335.38;5118281;28;20631;-85
2023/01/19 11:03:42;;;;;;;4.10;3.80;;;;;;;2.10;85.97;99323.38;5119201;28;20368;-83
2023/01/19 11:06:23;;;;;;;4.20;3.90;;;;;;;2.18;85.83;99318.19;5107700;28;20215;-82
2023/01/19 11:08:51;;;;;;;4.43;4.03;;;;;;;2.15;85.65;99316.50;5108096;28;20223;-84
2023/01/19 11:11:19;;;;;;;4.60;4.20;;;;;;;2.33;85.82;99317.28;5115993;28;20225;-83
2023/01/19 11:14:01;;;;;;;4.67;4.27;;;;;;;2.35;85.72;99313.00;5116948;28;20200;-82
2023/01/19 11:16:30;;;;;;;4.20;3.90;;;;;;;2.34;85.26;99309.56;5097331;28;20208;-82
2023/01/19 11:19:00;;;;;;;4.00;3.70;;;;;;;2.34;86.10;99311.31;5098416;28;20639;-82
2023/01/19 11:21:30;;;;;;;3.23;3.03;;;;;;;2.35;86.11;99311.25;5094549;28;20312;-83
2023/01/19 11:23:59;;;;;;;3.83;3.53;;;;;;;2.35;86.25;99315.56;5098253;28;20262;-85
2023/01/19 11:26:27;;;;;;;3.73;3.50;;;;;;;2.43;85.96;99315.53;5099056;28;20209;-84
2023/01/19 11:28:56;;;;;;;3.70;3.40;;;;;;;2.44;86.29;99310.38;5099399;28;20232;-86
2023/01/19 11:31:32;;;;;;;3.70;3.40;;;;;;;2.23;87.21;99302.75;5098037;28;20197;-83
2023/01/19 11:34:05;;;;;;;3.77;3.47;;;;;;;2.41;86.35;99291.50;5097890;28;20598;-81
2023/01/19 11:36:34;;;;;;;4.00;3.70;;;;;;;2.48;86.83;99296.63;5097326;28;20606;-81
2023/01/19 11:39:20;;;;;;;3.60;3.30;;;;;;;2.44;86.33;99306.94;5101587;28;20229;-80
2023/01/19 11:41:50;;;;;;;3.30;3.07;;;;;;;2.48;86.33;99304.38;5116557;28;20204;-80
2023/01/19 11:44:21;;;;;;;3.67;3.37;;;;;;;2.54;86.49;99303.47;5118837;28;20738;-84
2023/01/19 11:46:53;;;;;;;3.60;3.30;;;;;;;2.57;87.03;99308.59;5117756;28;20195;-86
2023/01/19 11:49:27;;;;;;;4.27;3.90;;;;;;;2.48;86.90;99285.44;5117879;28;20276;-84
2023/01/19 11:51:59;;;;;;;3.43;3.13;;;;;;;2.30;87.51;99288.97;5086921;28;20261;-80
2023/01/19 11:54:33;;;;;;;3.70;3.40;;;;;;;2.38;88.56;99272.63;5108971;28;20689;-82
2023/01/19 11:57:01;;;;;;;3.67;3.47;;;;;;;2.31;87.94;99270.09;5114520;28;20253;-83